• Join FlightAware (Why Join?)
  • Login
  • US Flag 
01:39PM EDT


 

Airport Tracker/Info


-or-


 

Live Flight TrackerFlight Track Log ✈ FLG4222 ✈ 27-Sep-2013 ✈ KDTW - KBGM

Flight Track Log - Related Links

Times and Time Zones

All times are in EDT time to prevent confusion due to time zone crossing. See the FLG4222 flight status page for this flight to view local times or setup timezone preferences in your user account.

Time Position Orientation Groundspeed Altitude Reporting Facility
EDT Latitude Longitude Course Direction KTS MPH feet Rate Location/Type
10:12AM 42.1925 -83.3539 179° South 160 184 1,400  Level Cleveland Center
10:13AM 42.1694 -83.3536 179° South 169 194 2,400 1,920 Climbing Cleveland Center
10:14AM 42.1108 -83.3536 180° South 231 266 4,400 1,680 Climbing Cleveland Center
10:14AM 42.1089 -83.3533 174° South 199 229 4,500 2,220 Climbing Cleveland Center
10:15AM 42.0556 -83.3094 149° Southeast 270 311 6,700 2,400 Climbing Cleveland Center
10:15AM 42.0544 -83.2975 97° East 264 304 7,000 2,820 Climbing Cleveland Center
10:16AM 42.0778 -83.2111 70° East 274 315 9,600 3,000 Climbing Cleveland Center
10:16AM 42.0831 -83.1903 71° East 271 312 10,100 1,500 Climbing Cleveland Center
10:17AM 42.1197 -83.0953 62° Northeast 293 337 11,500 1,440 Climbing Cleveland Center
10:18AM 42.1628 -82.9853 62° Northeast 331 381 13,100 1,560 Climbing Cleveland Center
10:19AM 42.2069 -82.8717 62° Northeast 344 396 14,800 1,500 Climbing Cleveland Center
10:20AM 42.2519 -82.7550 62° Northeast 352 405 16,300 1,380 Climbing Cleveland Center
10:21AM 42.3075 -82.6122 62° Northeast 360 414 17,700 960 Climbing Cleveland Center
10:22AM 42.3539 -82.4881 63° Northeast 368 423 18,400 780 Climbing Cleveland Center
10:23AM 42.3642 -82.3425 84° East 396 456 19,400 960 Climbing Cleveland Center
10:24AM 42.3572 -82.1928 94° East 399 459 20,400 960 Climbing Cleveland Center
10:25AM 42.3497 -82.0194 93° East 403 464 21,500 900 Climbing Cleveland Center
10:26AM 42.3431 -81.8611 93° East 413 475 22,300 720 Climbing Cleveland Center
10:27AM 42.3361 -81.7044 93° East 413 475 23,100 720 Climbing Cleveland Center
10:28AM 42.3275 -81.5464 94° East 416 479 23,900 720 Climbing Cleveland Center
10:29AM 42.3206 -81.3853 93° East 422 486 24,600 480 Climbing Cleveland Center
10:30AM 42.3128 -81.2219 94° East 429 494 25,000 180 Climbing Cleveland Center
10:31AM 42.3047 -81.0547 94° East 439 505 25,000  Level Cleveland Center
10:32AM 42.2956 -80.8833 94° East 450 518 25,000  Level Cleveland Center
10:33AM 42.2836 -80.6814 95° East 456 525 25,000  Level Cleveland Center
10:35AM 42.2839 -80.5125 90° East 449 517 25,000  Level Cleveland Center
10:36AM 42.2853 -80.3442 89° East 446 513 25,000  Level Cleveland Center
10:37AM 42.2847 -80.1733 90° East 449 517 25,000  Level Cleveland Center
10:38AM 42.2850 -80.0058 90° East 444 511 25,000  Level Cleveland Center
10:39AM 42.2839 -79.8186 90° East 441 507 25,000  Level Cleveland Center
10:40AM 42.2842 -79.6542 90° East 440 506 25,000  Level Cleveland Center
10:41AM 42.2828 -79.4889 91° East 441 507 25,000  Level Cleveland Center
10:42AM 42.2811 -79.3256 91° East 440 506 25,000  Level Cleveland Center
10:43AM 42.2800 -79.1633 90° East 435 501 25,000  Level Cleveland Center
10:44AM 42.2781 -79.0019 91° East 433 498 25,000  Level Cleveland Center
10:45AM 42.2764 -78.8247 91° East 432 497 25,000  Level Cleveland Center
10:46AM 42.2747 -78.6625 91° East 433 498 25,000  Level Cleveland Center
10:47AM 42.2719 -78.4683 91° East 433 498 25,000  Level Cleveland Center
10:48AM 42.2694 -78.3058 91° East 435 501 25,000  Level Cleveland Center
10:49AM 42.2672 -78.1458 91° East 430 495 25,000 -180 Level Cleveland Center
10:50AM 42.2642 -77.9867 91° East 429 494 24,700 -1,020 Descending Cleveland Center
10:51AM 42.2611 -77.8294 91° East 427 491 23,000 -1,800 Descending Cleveland Center
10:52AM 42.2578 -77.6556 91° East 395 455 21,000 -1,800 Descending Cleveland Center
10:53AM 42.2544 -77.5153 92° East 381 438 19,300 -1,680 Descending Cleveland Center
10:54AM 42.2511 -77.3778 92° East 373 429 17,600 -1,800 Descending Cleveland Center
10:55AM 42.2483 -77.2422 92° East 367 422 15,700 -1,200 Descending Cleveland Center
10:56AM 42.2453 -77.1117 92° East 355 409 15,200 -1,440 Descending Cleveland Center
10:57AM 42.2411 -76.9536 92° East 351 404 12,800 -2,160 Descending Cleveland Center
10:58AM 42.2375 -76.8311 92° East 333 383 10,700 -1,680 Descending Cleveland Center
10:59AM 42.2333 -76.7211 93° East 302 348 9,400 -840 Descending Cleveland Center
11:00AM 42.2306 -76.6197 92° East 277 319 9,000 -240 Descending Cleveland Center
11:01AM 42.2272 -76.5194 93° East 270 311 9,000 -480 Level Cleveland Center
11:02AM 42.2236 -76.4175 93° East 272 313 8,100 -1,500 Descending Cleveland Center
11:03AM 42.2203 -76.3114 92° East 263 303 6,000 -1,920 Descending Cleveland Center
11:05AM 42.2169 -76.2167 93° East 261 300 4,100 -1,380 Descending New York Center
11:06AM 42.2128 -76.1269 94° East 247 284 3,200 -480 Descending New York Center
11:07AM 42.2100 -76.0511 93° East 223 257 3,200  Level New York Center
11:08AM 42.1697 -76.0142 146° Southeast 172 198 3,200 -240 Level New York Center
11:09AM 42.1489 -75.9706 123° Southeast 157 181 2,800 -600 Descending New York Center
11:10AM 42.1808 -75.9564 18° North 109 125 2,100 -420 Descending New York Center
11:11AM 42.1939 -75.9378 47° Northeast 69 79 2,000 -120 Descending New York Center